createdAt,value
2022-12-16T00:00:20.780Z,18.73
2022-12-16T00:02:49.708Z,17.60
2022-12-16T00:05:20.335Z,18.10
2022-12-16T00:07:49.034Z,15.90
2022-12-16T00:10:17.675Z,16.43
2022-12-16T00:12:46.219Z,15.27
2022-12-16T00:15:15.480Z,16.57
2022-12-16T00:17:44.130Z,15.43
2022-12-16T00:20:13.502Z,16.60
2022-12-16T00:22:43.389Z,16.03
2022-12-16T00:25:12.250Z,17.40
2022-12-16T00:27:40.934Z,15.50
2022-12-16T00:30:10.874Z,15.20
2022-12-16T00:32:39.526Z,17.07
2022-12-16T00:35:08.376Z,14.83
2022-12-16T00:37:37.030Z,15.13
2022-12-16T00:40:08.137Z,16.90
2022-12-16T00:42:36.956Z,16.30
2022-12-16T00:45:06.147Z,15.70
2022-12-16T00:47:35.437Z,15.83
2022-12-16T00:50:07.236Z,17.30
2022-12-16T00:52:35.818Z,15.77
2022-12-16T00:55:06.244Z,16.90
2022-12-16T00:57:35.233Z,16.23
2022-12-16T01:00:05.371Z,16.63
2022-12-16T01:02:34.167Z,15.83
2022-12-16T01:05:02.780Z,15.57
2022-12-16T01:07:31.356Z,16.90
2022-12-16T01:09:59.875Z,17.13
2022-12-16T01:12:29.831Z,16.43
2022-12-16T01:14:58.464Z,16.60
2022-12-16T01:17:27.043Z,15.27
2022-12-16T01:19:55.908Z,16.30
2022-12-16T01:22:24.840Z,15.30
2022-12-16T01:24:53.412Z,15.53
2022-12-16T01:27:23.890Z,14.43
2022-12-16T01:29:54.075Z,15.53
2022-12-16T01:32:24.520Z,15.27
2022-12-16T01:34:55.566Z,16.67
2022-12-16T01:37:25.246Z,15.30
2022-12-16T01:39:53.852Z,17.00
2022-12-16T01:42:24.058Z,14.97
2022-12-16T01:44:55.156Z,16.63
2022-12-16T01:47:27.491Z,15.60
2022-12-16T01:50:00.276Z,16.57
2022-12-16T01:52:31.208Z,14.40
2022-12-16T01:57:55.341Z,14.87
2022-12-16T02:00:25.591Z,15.13
2022-12-16T02:02:56.598Z,14.37
2022-12-16T02:05:26.518Z,14.43
2022-12-16T02:08:00.816Z,15.77
2022-12-16T02:13:36.634Z,13.83
2022-12-16T02:16:17.178Z,14.23
2022-12-16T02:18:56.397Z,14.97
2022-12-16T02:21:37.475Z,14.00
2022-12-16T02:24:55.012Z,13.13
2022-12-16T02:31:20.850Z,12.90
2022-12-16T02:33:59.946Z,12.30
2022-12-16T02:36:42.334Z,14.27
2022-12-16T02:39:15.767Z,13.50
2022-12-16T02:41:49.639Z,14.03
2022-12-16T02:47:06.876Z,13.50
2022-12-16T02:49:50.132Z,13.90
2022-12-16T02:52:22.768Z,12.97
2022-12-16T02:54:54.380Z,12.90
2022-12-16T02:57:39.032Z,13.07
2022-12-16T03:00:12.579Z,14.30
2022-12-16T03:02:49.403Z,13.70
2022-12-16T03:05:22.239Z,13.40
2022-12-16T03:07:53.385Z,12.30
2022-12-16T03:10:27.520Z,13.43
2022-12-16T03:12:57.775Z,12.33
2022-12-16T03:15:29.941Z,13.47
2022-12-16T03:20:53.720Z,12.57
2022-12-16T03:23:32.789Z,13.13
2022-12-16T03:26:07.296Z,12.30
2022-12-16T03:28:45.604Z,12.80
2022-12-16T03:31:25.634Z,12.63
2022-12-16T03:36:52.435Z,12.50
2022-12-16T03:39:23.180Z,12.53
2022-12-16T03:41:54.375Z,11.57
2022-12-16T03:44:25.245Z,12.33
2022-12-16T03:46:53.916Z,12.57
2022-12-16T03:49:24.420Z,12.27
2022-12-16T03:54:39.818Z,11.63
2022-12-16T03:57:14.746Z,13.07
2022-12-16T03:59:44.190Z,11.63
2022-12-16T04:02:12.783Z,11.90
2022-12-16T04:04:42.935Z,12.03
2022-12-16T04:10:11.201Z,12.43
2022-12-16T04:12:57.414Z,11.70
2022-12-16T04:15:43.451Z,11.93
2022-12-16T04:18:33.773Z,11.57
2022-12-16T04:21:40.901Z,11.63
2022-12-16T04:27:37.520Z,11.77
2022-12-16T04:30:27.639Z,10.60
2022-12-16T04:33:34.823Z,11.47
2022-12-16T04:36:42.398Z,10.03
2022-12-16T04:39:48.217Z,11.20
2022-12-16T04:46:19.853Z,10.93
2022-12-16T04:49:25.996Z,11.17
2022-12-16T04:52:34.061Z,11.27
2022-12-16T04:55:39.948Z,9.63
2022-12-16T05:02:09.491Z,9.57
2022-12-16T05:05:15.465Z,10.03
2022-12-16T05:08:37.631Z,9.90
2022-12-16T05:11:44.046Z,9.43
2022-12-16T05:14:54.038Z,10.07
2022-12-16T05:18:00.510Z,10.70
2022-12-16T05:21:05.200Z,10.60
2022-12-16T05:24:12.501Z,9.33
2022-12-16T05:27:18.364Z,10.83
2022-12-16T05:30:18.688Z,9.60
2022-12-16T05:33:07.720Z,10.07
2022-12-16T05:35:54.306Z,12.57
2022-12-16T05:38:40.188Z,10.67
2022-12-16T05:41:27.532Z,10.53
2022-12-16T05:44:13.373Z,10.07
2022-12-16T05:46:59.517Z,9.30
2022-12-16T05:49:45.343Z,10.27
2022-12-16T05:52:31.099Z,9.97
2022-12-16T05:55:17.035Z,10.90
2022-12-16T05:58:07.967Z,9.80
2022-12-16T06:00:54.173Z,9.10
2022-12-16T06:03:48.782Z,9.57
2022-12-16T06:06:34.887Z,10.67
2022-12-16T06:09:21.266Z,10.67
2022-12-16T06:12:08.178Z,10.27
2022-12-16T06:14:55.317Z,10.13
2022-12-16T06:17:41.195Z,10.70
2022-12-16T06:20:30.044Z,10.63
2022-12-16T06:23:18.778Z,10.17
2022-12-16T06:26:06.880Z,10.60
2022-12-16T06:28:53.109Z,10.50
2022-12-16T06:31:40.664Z,10.50
2022-12-16T06:34:26.791Z,10.30
2022-12-16T06:37:12.836Z,9.07
2022-12-16T06:39:58.974Z,9.30
2022-12-16T06:42:44.803Z,10.27
2022-12-16T06:45:34.685Z,9.90
2022-12-16T06:48:41.429Z,10.10
2022-12-16T06:51:27.502Z,10.63
2022-12-16T06:54:13.788Z,11.70
2022-12-16T06:56:59.927Z,9.33
2022-12-16T06:59:46.153Z,9.67
2022-12-16T07:02:32.430Z,11.13
2022-12-16T07:05:20.388Z,10.10
2022-12-16T07:08:07.260Z,9.87
2022-12-16T07:10:55.045Z,9.57
2022-12-16T07:13:43.111Z,9.80
2022-12-16T07:16:29.479Z,9.43
2022-12-16T07:19:15.399Z,11.00
2022-12-16T07:22:02.809Z,10.23
2022-12-16T07:24:48.822Z,11.07
2022-12-16T07:27:34.756Z,11.27
2022-12-16T07:30:21.038Z,11.63
2022-12-16T07:33:08.969Z,10.30
2022-12-16T07:35:54.088Z,10.60
2022-12-16T07:38:41.890Z,10.53
2022-12-16T07:41:28.185Z,9.70
2022-12-16T07:44:13.995Z,9.20
2022-12-16T07:47:00.203Z,10.43
2022-12-16T07:49:46.266Z,10.60
2022-12-16T07:52:32.428Z,10.40
2022-12-16T07:55:19.722Z,9.83
2022-12-16T07:58:08.635Z,11.27
2022-12-16T08:00:55.214Z,11.73
2022-12-16T08:03:42.190Z,12.07
2022-12-16T08:06:28.521Z,9.73
2022-12-16T08:09:14.467Z,9.23
2022-12-16T08:12:01.979Z,10.87
2022-12-16T08:14:47.865Z,9.40
2022-12-16T08:17:33.825Z,8.73
2022-12-16T08:20:20.185Z,10.17
2022-12-16T08:23:06.407Z,14.60
2022-12-16T08:25:52.563Z,13.47
2022-12-16T08:28:42.541Z,10.90
2022-12-16T08:31:28.832Z,10.97
2022-12-16T08:34:17.050Z,11.27
2022-12-16T08:37:02.973Z,10.90
2022-12-16T08:40:10.627Z,11.23
2022-12-16T08:42:55.232Z,11.00
2022-12-16T08:45:43.963Z,11.57
2022-12-16T08:48:29.956Z,10.10
2022-12-16T08:51:19.384Z,10.97
2022-12-16T08:54:05.713Z,10.67
2022-12-16T08:56:51.585Z,12.43
2022-12-16T08:59:37.704Z,10.83
2022-12-16T09:02:25.090Z,12.03
2022-12-16T09:05:11.273Z,11.43
2022-12-16T09:08:06.072Z,13.00
2022-12-16T09:10:52.427Z,12.67
2022-12-16T09:13:41.397Z,13.93
2022-12-16T09:16:27.403Z,14.07
2022-12-16T09:19:17.185Z,12.83
2022-12-16T09:22:03.431Z,12.87
2022-12-16T09:24:49.471Z,14.10
2022-12-16T09:27:35.365Z,13.47
2022-12-16T09:30:21.524Z,14.87
2022-12-16T09:33:07.658Z,14.30
2022-12-16T09:35:56.031Z,12.97
2022-12-16T09:38:41.868Z,13.87
2022-12-16T09:41:50.349Z,13.97
2022-12-16T09:44:46.019Z,13.50
2022-12-16T09:47:41.630Z,14.70
2022-12-16T09:50:38.361Z,14.33
2022-12-16T09:53:30.470Z,14.93
2022-12-16T09:56:17.386Z,14.53
2022-12-16T09:59:08.382Z,15.13
2022-12-16T10:01:56.777Z,15.53
2022-12-16T10:04:43.586Z,14.17
2022-12-16T10:07:35.627Z,15.93
2022-12-16T10:10:35.365Z,15.20
2022-12-16T10:13:29.101Z,15.97
2022-12-16T10:16:25.583Z,16.00
2022-12-16T10:19:19.161Z,15.93
2022-12-16T10:22:12.536Z,14.73
2022-12-16T10:25:08.724Z,15.67
2022-12-16T10:28:02.105Z,14.90
2022-12-16T10:30:49.413Z,16.33
2022-12-16T10:33:38.216Z,16.17
2022-12-16T10:36:31.834Z,17.00
2022-12-16T10:39:21.210Z,16.67
2022-12-16T10:42:11.343Z,15.17
2022-12-16T10:45:08.885Z,17.07
2022-12-16T10:47:54.942Z,16.67
2022-12-16T10:50:46.162Z,16.00
2022-12-16T10:53:34.623Z,16.27
2022-12-16T10:56:32.859Z,15.80
2022-12-16T10:59:23.131Z,15.40
2022-12-16T11:02:18.287Z,17.53
2022-12-16T11:05:05.441Z,16.13
2022-12-16T11:07:56.081Z,16.70
2022-12-16T11:10:49.201Z,16.10
2022-12-16T11:13:42.086Z,15.30
2022-12-16T11:16:37.973Z,15.20
2022-12-16T11:19:38.491Z,16.10
2022-12-16T11:22:25.986Z,17.07
2022-12-16T11:25:24.141Z,15.83
2022-12-16T11:28:20.573Z,15.90
2022-12-16T11:31:11.679Z,16.57
2022-12-16T11:33:58.776Z,16.27
2022-12-16T11:36:46.090Z,16.87
2022-12-16T11:39:36.338Z,16.03
2022-12-16T11:42:24.334Z,16.33
2022-12-16T11:45:28.547Z,16.07
2022-12-16T11:48:31.702Z,16.43
2022-12-16T11:51:19.864Z,18.30
2022-12-16T11:54:10.998Z,17.53
2022-12-16T11:56:59.875Z,18.00
2022-12-16T11:59:55.172Z,17.47
2022-12-16T12:02:47.108Z,17.03
2022-12-16T12:05:33.424Z,18.53
2022-12-16T12:08:24.854Z,20.00
2022-12-16T12:11:23.034Z,18.80
2022-12-16T12:14:17.883Z,18.13
2022-12-16T12:17:16.047Z,19.00
2022-12-16T12:20:12.506Z,19.07
2022-12-16T12:22:59.651Z,20.10
2022-12-16T12:25:53.137Z,18.93
2022-12-16T12:28:51.397Z,19.30
2022-12-16T12:31:50.894Z,19.97
2022-12-16T12:34:44.117Z,20.27
2022-12-16T12:37:39.679Z,19.33
2022-12-16T12:40:42.551Z,18.47
2022-12-16T12:43:43.170Z,19.77
2022-12-16T12:46:40.508Z,21.77
2022-12-16T12:49:35.104Z,19.23
2022-12-16T12:52:29.855Z,19.77
2022-12-16T12:55:22.662Z,20.53
2022-12-16T12:58:07.859Z,21.60
2022-12-16T13:01:01.646Z,20.63
2022-12-16T13:03:55.350Z,21.90
2022-12-16T13:06:43.089Z,23.30
2022-12-16T13:09:48.187Z,22.40
2022-12-16T13:12:50.260Z,22.80
2022-12-16T13:15:53.491Z,22.60
2022-12-16T13:18:49.860Z,23.67
2022-12-16T13:22:05.699Z,21.27
2022-12-16T13:25:04.488Z,20.27
2022-12-16T13:28:05.895Z,21.83
2022-12-16T13:30:53.055Z,23.00
2022-12-16T13:33:46.556Z,21.40
2022-12-16T13:36:36.711Z,22.87
2022-12-16T13:39:40.589Z,24.23
2022-12-16T13:42:53.189Z,24.53
2022-12-16T13:45:52.245Z,22.00
2022-12-16T13:48:56.887Z,23.13
2022-12-16T13:52:25.411Z,21.40
2022-12-16T13:55:23.021Z,21.33
2022-12-16T13:58:23.525Z,21.47
2022-12-16T14:01:26.029Z,20.43
2022-12-16T14:04:12.665Z,20.53
2022-12-16T14:06:59.123Z,22.97
2022-12-16T14:09:51.344Z,21.23
2022-12-16T14:13:00.091Z,23.40
2022-12-16T14:15:52.482Z,21.97
2022-12-16T14:18:49.130Z,24.70
2022-12-16T14:21:45.700Z,21.47
2022-12-16T14:24:41.899Z,23.27
2022-12-16T14:27:34.401Z,23.20
2022-12-16T14:30:32.611Z,22.30
2022-12-16T14:33:33.215Z,22.67
2022-12-16T14:36:31.061Z,20.93
2022-12-16T14:39:17.199Z,22.93
2022-12-16T14:42:09.503Z,20.90
2022-12-16T14:44:56.375Z,20.93
2022-12-16T14:47:43.351Z,21.23
2022-12-16T14:50:41.085Z,21.90
2022-12-16T14:53:34.053Z,21.53
2022-12-16T14:56:36.048Z,21.20
2022-12-16T14:59:33.824Z,21.43
2022-12-16T15:02:33.412Z,21.23
2022-12-16T15:05:20.245Z,21.70
2022-12-16T15:08:16.418Z,22.83
2022-12-16T15:11:11.434Z,23.20
2022-12-16T15:14:03.345Z,23.53
2022-12-16T15:16:57.174Z,22.87
2022-12-16T15:19:44.211Z,23.80
2022-12-16T15:22:34.410Z,23.60
2022-12-16T15:25:23.202Z,22.10
2022-12-16T15:28:13.077Z,22.63
2022-12-16T15:31:00.249Z,22.37
2022-12-16T15:34:03.138Z,21.43
2022-12-16T15:36:51.399Z,19.40
2022-12-16T15:39:39.155Z,20.30
2022-12-16T15:42:52.715Z,19.17
2022-12-16T15:45:43.293Z,21.50
2022-12-16T15:48:37.583Z,20.27
2022-12-16T15:51:37.806Z,17.60
2022-12-16T15:54:24.474Z,17.37
2022-12-16T15:57:10.487Z,17.73
2022-12-16T16:00:14.094Z,17.40
2022-12-16T16:03:06.074Z,19.10
2022-12-16T16:05:55.168Z,17.07
2022-12-16T16:08:40.600Z,18.37
2022-12-16T16:11:27.091Z,18.07
2022-12-16T16:14:14.591Z,18.40
2022-12-16T16:17:02.045Z,16.27
2022-12-16T16:19:48.407Z,16.77
2022-12-16T16:22:36.310Z,16.17
2022-12-16T16:25:23.046Z,17.60
2022-12-16T16:28:14.121Z,16.07
2022-12-16T16:31:01.477Z,18.60
2022-12-16T16:33:49.148Z,17.77
2022-12-16T16:36:35.283Z,17.93
2022-12-16T16:39:21.346Z,18.90
2022-12-16T16:42:07.248Z,18.27
2022-12-16T16:44:53.074Z,17.77
2022-12-16T16:47:39.069Z,16.93
2022-12-16T16:50:32.337Z,17.00
2022-12-16T16:53:18.456Z,16.37
2022-12-16T16:56:04.566Z,14.67
2022-12-16T16:58:52.710Z,16.47
2022-12-16T17:01:39.064Z,18.30
2022-12-16T17:04:25.315Z,16.87
2022-12-16T17:07:12.766Z,17.13
2022-12-16T17:09:58.938Z,17.63
2022-12-16T17:12:47.762Z,16.90
2022-12-16T17:15:36.592Z,16.40
2022-12-16T17:18:23.903Z,17.10
2022-12-16T17:21:10.128Z,18.13
2022-12-16T17:23:57.172Z,19.13
2022-12-16T17:26:44.287Z,18.83
2022-12-16T17:29:36.806Z,16.87
2022-12-16T17:32:23.289Z,16.47
2022-12-16T17:35:09.495Z,16.30
2022-12-16T17:37:55.412Z,17.70
2022-12-16T17:40:43.443Z,17.77
2022-12-16T17:43:29.787Z,16.13
2022-12-16T17:46:18.084Z,19.30
2022-12-16T17:49:08.707Z,18.60
2022-12-16T17:51:55.271Z,18.70
2022-12-16T17:54:41.662Z,18.17
2022-12-16T17:57:29.518Z,19.77
2022-12-16T18:00:15.683Z,19.50
2022-12-16T18:03:02.024Z,20.70
2022-12-16T18:05:47.535Z,20.03
2022-12-16T18:08:35.276Z,17.83
2022-12-16T18:11:21.273Z,20.37
2022-12-16T18:14:20.004Z,21.27
2022-12-16T18:17:06.241Z,22.93
2022-12-16T18:20:03.816Z,19.40
2022-12-16T18:22:50.007Z,20.57
2022-12-16T18:25:36.039Z,21.00
2022-12-16T18:28:22.260Z,22.90
2022-12-16T18:31:09.675Z,23.20
2022-12-16T18:33:55.654Z,21.47
2022-12-16T18:36:53.335Z,21.00
2022-12-16T18:39:39.312Z,23.50
2022-12-16T18:42:25.603Z,22.90
2022-12-16T18:45:11.807Z,21.80
2022-12-16T18:47:58.448Z,21.67
2022-12-16T18:50:44.528Z,21.87
2022-12-16T18:53:30.643Z,22.00
2022-12-16T18:56:23.468Z,21.87
2022-12-16T18:59:09.898Z,22.17
2022-12-16T19:01:56.173Z,20.20
2022-12-16T19:04:43.891Z,22.07
2022-12-16T19:07:33.573Z,19.40
2022-12-16T19:10:20.159Z,20.17
2022-12-16T19:13:06.120Z,18.33
2022-12-16T19:15:52.326Z,20.10
2022-12-16T19:18:38.746Z,21.17
2022-12-16T19:21:26.381Z,20.10
2022-12-16T19:24:12.410Z,22.97
2022-12-16T19:26:58.814Z,22.80
2022-12-16T19:29:45.016Z,20.30
2022-12-16T19:32:31.141Z,21.57
2022-12-16T19:35:17.682Z,21.83
2022-12-16T19:38:05.471Z,22.80
2022-12-16T19:40:51.437Z,21.90
2022-12-16T19:43:39.953Z,19.87
2022-12-16T19:46:26.153Z,22.90
2022-12-16T19:49:12.148Z,20.10
2022-12-16T19:51:58.236Z,19.97
2022-12-16T19:54:45.913Z,20.90
2022-12-16T19:57:28.349Z,22.23
2022-12-16T20:00:16.946Z,21.20
2022-12-16T20:03:03.178Z,22.47
2022-12-16T20:05:49.371Z,22.43
2022-12-16T20:08:35.446Z,22.63
2022-12-16T20:11:25.396Z,22.00
2022-12-16T20:14:13.952Z,20.93
2022-12-16T20:17:00.975Z,21.50
2022-12-16T20:19:47.478Z,20.80
2022-12-16T20:22:33.553Z,21.73
2022-12-16T20:25:19.461Z,22.93
2022-12-16T20:28:06.926Z,22.07
2022-12-16T20:30:53.629Z,21.83
2022-12-16T20:33:42.677Z,19.63
2022-12-16T20:36:29.178Z,18.60
2022-12-16T20:39:15.275Z,21.40
2022-12-16T20:42:01.246Z,21.00
2022-12-16T20:44:48.486Z,18.70
2022-12-16T20:47:34.334Z,18.83
2022-12-16T20:50:20.628Z,22.60
2022-12-16T20:53:06.729Z,20.70
2022-12-16T20:55:52.880Z,20.67
2022-12-16T20:58:42.423Z,19.87
2022-12-16T21:01:30.238Z,19.70
2022-12-16T21:04:16.474Z,20.33
2022-12-16T21:07:02.493Z,20.00
2022-12-16T21:09:48.353Z,20.17
2022-12-16T21:12:34.371Z,21.30
2022-12-16T21:15:20.532Z,20.57
2022-12-16T21:18:08.128Z,21.97
2022-12-16T21:21:02.113Z,23.83
2022-12-16T21:23:48.128Z,21.37
2022-12-16T21:26:34.367Z,20.43
2022-12-16T21:29:20.227Z,20.40
2022-12-16T21:32:06.353Z,20.20
2022-12-16T21:34:53.822Z,19.63
2022-12-16T21:37:42.679Z,20.37
2022-12-16T21:40:29.359Z,19.67
2022-12-16T21:43:15.085Z,22.97
2022-12-16T21:46:01.582Z,23.43
2022-12-16T21:48:56.240Z,22.60
2022-12-16T21:51:43.912Z,23.70
2022-12-16T21:54:29.687Z,21.13
2022-12-16T21:57:15.644Z,21.53
2022-12-16T22:00:01.836Z,21.40
2022-12-16T22:02:56.878Z,22.47
2022-12-16T22:05:42.843Z,20.60
2022-12-16T22:08:30.347Z,21.80
2022-12-16T22:11:16.565Z,22.70
2022-12-16T22:14:02.773Z,23.23
2022-12-16T22:16:49.160Z,22.73
2022-12-16T22:19:35.313Z,22.50
2022-12-16T22:22:21.337Z,20.67
2022-12-16T22:25:14.361Z,22.63
2022-12-16T22:28:00.817Z,20.37
2022-12-16T22:30:46.849Z,19.73
2022-12-16T22:33:33.176Z,20.03
2022-12-16T22:36:19.811Z,21.57
2022-12-16T22:39:05.979Z,19.40
2022-12-16T22:41:53.641Z,18.97
2022-12-16T22:44:36.486Z,19.80
2022-12-16T22:47:22.523Z,21.57
2022-12-16T22:50:08.416Z,20.03
2022-12-16T22:52:54.738Z,20.40
2022-12-16T22:55:40.506Z,21.23
2022-12-16T22:58:29.127Z,20.47
2022-12-16T23:01:16.344Z,20.33
2022-12-16T23:04:22.070Z,19.93
2022-12-16T23:07:12.587Z,19.53
2022-12-16T23:09:58.657Z,20.13
2022-12-16T23:12:44.437Z,19.97
2022-12-16T23:15:32.406Z,19.90
2022-12-16T23:18:19.256Z,20.57
2022-12-16T23:21:06.263Z,19.60
2022-12-16T23:23:58.258Z,20.60
2022-12-16T23:26:44.543Z,19.60
2022-12-16T23:29:30.604Z,20.63
2022-12-16T23:32:29.622Z,20.43
2022-12-16T23:35:15.929Z,20.10
2022-12-16T23:38:02.057Z,18.87
2022-12-16T23:40:48.260Z,20.83
2022-12-16T23:43:34.361Z,20.53
2022-12-16T23:46:20.471Z,21.80
2022-12-16T23:49:07.896Z,19.50
2022-12-16T23:51:54.047Z,18.60
2022-12-16T23:54:45.499Z,21.13
2022-12-16T23:57:31.712Z,20.37
